sensor_id;sensor_type;location;lat;lon;timestamp;P1;durP1;ratioP1;P2;durP2;ratioP2
83554;SDS011;73511;50.996;7.030;2024-01-11T00:00:31;35.03;;;13.30;;
83554;SDS011;73511;50.996;7.030;2024-01-11T00:02:58;38.38;;;13.90;;
83554;SDS011;73511;50.996;7.030;2024-01-11T00:05:25;41.15;;;15.45;;
83554;SDS011;73511;50.996;7.030;2024-01-11T00:07:52;40.40;;;13.88;;
83554;SDS011;73511;50.996;7.030;2024-01-11T00:10:18;34.97;;;13.32;;
83554;SDS011;73511;50.996;7.030;2024-01-11T00:12:46;34.90;;;12.88;;
83554;SDS011;73511;50.996;7.030;2024-01-11T00:15:13;32.50;;;14.07;;
83554;SDS011;73511;50.996;7.030;2024-01-11T00:17:40;36.70;;;14.13;;
83554;SDS011;73511;50.996;7.030;2024-01-11T00:20:07;32.05;;;12.45;;
83554;SDS011;73511;50.996;7.030;2024-01-11T00:22:34;36.40;;;13.40;;
83554;SDS011;73511;50.996;7.030;2024-01-11T00:25:01;29.67;;;11.68;;
83554;SDS011;73511;50.996;7.030;2024-01-11T00:27:27;28.77;;;11.50;;
83554;SDS011;73511;50.996;7.030;2024-01-11T00:29:54;38.42;;;13.10;;
83554;SDS011;73511;50.996;7.030;2024-01-11T00:32:21;32.10;;;11.38;;
83554;SDS011;73511;50.996;7.030;2024-01-11T00:34:47;24.30;;;11.10;;
83554;SDS011;73511;50.996;7.030;2024-01-11T00:37:14;33.28;;;12.05;;
83554;SDS011;73511;50.996;7.030;2024-01-11T00:39:41;28.00;;;11.70;;
83554;SDS011;73511;50.996;7.030;2024-01-11T00:42:08;30.98;;;12.00;;
83554;SDS011;73511;50.996;7.030;2024-01-11T00:44:35;29.77;;;11.48;;
83554;SDS011;73511;50.996;7.030;2024-01-11T00:47:02;24.90;;;9.95;;
83554;SDS011;73511;50.996;7.030;2024-01-11T00:49:28;34.60;;;13.30;;
83554;SDS011;73511;50.996;7.030;2024-01-11T00:51:55;32.60;;;13.02;;
83554;SDS011;73511;50.996;7.030;2024-01-11T00:54:22;31.35;;;12.13;;
83554;SDS011;73511;50.996;7.030;2024-01-11T00:56:50;29.92;;;11.98;;
83554;SDS011;73511;50.996;7.030;2024-01-11T00:59:16;40.22;;;13.60;;
83554;SDS011;73511;50.996;7.030;2024-01-11T01:01:50;33.10;;;14.20;;
83554;SDS011;73511;50.996;7.030;2024-01-11T01:04:18;31.58;;;11.27;;
83554;SDS011;73511;50.996;7.030;2024-01-11T01:06:45;33.83;;;13.20;;
83554;SDS011;73511;50.996;7.030;2024-01-11T01:09:11;35.55;;;14.60;;
83554;SDS011;73511;50.996;7.030;2024-01-11T01:11:39;34.08;;;12.63;;
83554;SDS011;73511;50.996;7.030;2024-01-11T01:14:06;24.42;;;10.80;;
83554;SDS011;73511;50.996;7.030;2024-01-11T01:16:33;30.50;;;10.52;;
83554;SDS011;73511;50.996;7.030;2024-01-11T01:18:59;31.92;;;10.85;;
83554;SDS011;73511;50.996;7.030;2024-01-11T01:21:26;29.80;;;11.23;;
83554;SDS011;73511;50.996;7.030;2024-01-11T01:23:54;27.63;;;11.73;;
83554;SDS011;73511;50.996;7.030;2024-01-11T01:26:21;28.48;;;11.82;;
83554;SDS011;73511;50.996;7.030;2024-01-11T01:28:47;29.15;;;10.98;;
83554;SDS011;73511;50.996;7.030;2024-01-11T01:31:14;29.15;;;10.27;;
83554;SDS011;73511;50.996;7.030;2024-01-11T01:33:41;24.70;;;10.82;;
83554;SDS011;73511;50.996;7.030;2024-01-11T01:36:09;26.02;;;10.93;;
83554;SDS011;73511;50.996;7.030;2024-01-11T01:38:36;21.02;;;10.18;;
83554;SDS011;73511;50.996;7.030;2024-01-11T01:41:03;22.98;;;8.73;;
83554;SDS011;73511;50.996;7.030;2024-01-11T01:43:29;29.95;;;10.55;;
83554;SDS011;73511;50.996;7.030;2024-01-11T01:45:56;33.28;;;8.90;;
83554;SDS011;73511;50.996;7.030;2024-01-11T01:48:22;31.73;;;11.25;;
83554;SDS011;73511;50.996;7.030;2024-01-11T01:50:49;30.00;;;11.68;;
83554;SDS011;73511;50.996;7.030;2024-01-11T01:53:18;38.38;;;12.85;;
83554;SDS011;73511;50.996;7.030;2024-01-11T01:55:46;32.97;;;12.00;;
83554;SDS011;73511;50.996;7.030;2024-01-11T01:58:14;30.50;;;13.40;;
83554;SDS011;73511;50.996;7.030;2024-01-11T02:00:41;28.73;;;12.65;;
83554;SDS011;73511;50.996;7.030;2024-01-11T02:05:36;25.98;;;9.93;;
83554;SDS011;73511;50.996;7.030;2024-01-11T02:08:03;31.45;;;12.05;;
83554;SDS011;73511;50.996;7.030;2024-01-11T02:10:34;34.25;;;12.27;;
83554;SDS011;73511;50.996;7.030;2024-01-11T02:13:02;27.85;;;10.98;;
83554;SDS011;73511;50.996;7.030;2024-01-11T02:15:28;30.00;;;11.88;;
83554;SDS011;73511;50.996;7.030;2024-01-11T02:17:55;37.95;;;13.13;;
83554;SDS011;73511;50.996;7.030;2024-01-11T02:20:22;29.55;;;10.75;;
83554;SDS011;73511;50.996;7.030;2024-01-11T02:22:50;31.13;;;13.02;;
83554;SDS011;73511;50.996;7.030;2024-01-11T02:25:19;36.88;;;12.40;;
83554;SDS011;73511;50.996;7.030;2024-01-11T02:27:47;35.50;;;13.07;;
83554;SDS011;73511;50.996;7.030;2024-01-11T02:30:15;35.78;;;13.77;;
83554;SDS011;73511;50.996;7.030;2024-01-11T02:32:46;26.77;;;11.63;;
83554;SDS011;73511;50.996;7.030;2024-01-11T02:35:15;41.35;;;13.95;;
83554;SDS011;73511;50.996;7.030;2024-01-11T02:37:42;32.00;;;13.65;;
83554;SDS011;73511;50.996;7.030;2024-01-11T02:40:10;32.58;;;12.98;;
83554;SDS011;73511;50.996;7.030;2024-01-11T02:42:36;32.20;;;11.98;;
83554;SDS011;73511;50.996;7.030;2024-01-11T02:45:03;34.63;;;12.77;;
83554;SDS011;73511;50.996;7.030;2024-01-11T02:47:30;31.95;;;11.57;;
83554;SDS011;73511;50.996;7.030;2024-01-11T02:49:57;36.05;;;14.07;;
83554;SDS011;73511;50.996;7.030;2024-01-11T02:52:26;43.88;;;15.00;;
83554;SDS011;73511;50.996;7.030;2024-01-11T02:54:52;38.55;;;15.82;;
83554;SDS011;73511;50.996;7.030;2024-01-11T02:57:19;35.55;;;13.52;;
83554;SDS011;73511;50.996;7.030;2024-01-11T02:59:46;25.30;;;11.45;;
83554;SDS011;73511;50.996;7.030;2024-01-11T03:02:12;37.63;;;12.18;;
83554;SDS011;73511;50.996;7.030;2024-01-11T03:04:39;29.27;;;11.52;;
83554;SDS011;73511;50.996;7.030;2024-01-11T03:07:05;36.67;;;12.57;;
83554;SDS011;73511;50.996;7.030;2024-01-11T03:09:32;32.42;;;12.82;;
83554;SDS011;73511;50.996;7.030;2024-01-11T03:12:00;24.92;;;13.32;;
83554;SDS011;73511;50.996;7.030;2024-01-11T03:14:33;35.40;;;13.93;;
83554;SDS011;73511;50.996;7.030;2024-01-11T03:16:59;30.15;;;12.35;;
83554;SDS011;73511;50.996;7.030;2024-01-11T03:19:26;39.45;;;12.88;;
83554;SDS011;73511;50.996;7.030;2024-01-11T03:21:54;33.30;;;13.88;;
83554;SDS011;73511;50.996;7.030;2024-01-11T03:24:20;29.27;;;11.75;;
83554;SDS011;73511;50.996;7.030;2024-01-11T03:26:47;26.35;;;11.05;;
83554;SDS011;73511;50.996;7.030;2024-01-11T03:29:15;32.30;;;12.45;;
83554;SDS011;73511;50.996;7.030;2024-01-11T03:31:42;26.92;;;11.48;;
83554;SDS011;73511;50.996;7.030;2024-01-11T03:34:11;30.80;;;13.48;;
83554;SDS011;73511;50.996;7.030;2024-01-11T03:36:38;24.98;;;11.68;;
83554;SDS011;73511;50.996;7.030;2024-01-11T03:39:06;31.20;;;12.57;;
83554;SDS011;73511;50.996;7.030;2024-01-11T03:41:33;27.48;;;10.57;;
83554;SDS011;73511;50.996;7.030;2024-01-11T03:44:00;34.00;;;13.57;;
83554;SDS011;73511;50.996;7.030;2024-01-11T03:46:27;39.85;;;12.75;;
83554;SDS011;73511;50.996;7.030;2024-01-11T03:48:54;29.67;;;13.40;;
83554;SDS011;73511;50.996;7.030;2024-01-11T03:51:22;31.80;;;12.20;;
83554;SDS011;73511;50.996;7.030;2024-01-11T03:53:48;45.35;;;12.43;;
83554;SDS011;73511;50.996;7.030;2024-01-11T03:56:17;27.85;;;11.93;;
83554;SDS011;73511;50.996;7.030;2024-01-11T03:58:44;31.52;;;11.18;;
83554;SDS011;73511;50.996;7.030;2024-01-11T04:01:11;35.50;;;11.57;;
83554;SDS011;73511;50.996;7.030;2024-01-11T04:03:38;25.25;;;12.30;;
83554;SDS011;73511;50.996;7.030;2024-01-11T04:06:05;26.88;;;11.80;;
83554;SDS011;73511;50.996;7.030;2024-01-11T04:08:32;36.75;;;13.07;;
83554;SDS011;73511;50.996;7.030;2024-01-11T04:11:02;36.78;;;13.32;;
83554;SDS011;73511;50.996;7.030;2024-01-11T04:13:30;36.78;;;13.20;;
83554;SDS011;73511;50.996;7.030;2024-01-11T04:15:57;38.53;;;13.70;;
83554;SDS011;73511;50.996;7.030;2024-01-11T04:18:24;35.15;;;13.15;;
83554;SDS011;73511;50.996;7.030;2024-01-11T04:20:51;29.13;;;10.98;;
83554;SDS011;73511;50.996;7.030;2024-01-11T04:23:17;33.83;;;12.18;;
83554;SDS011;73511;50.996;7.030;2024-01-11T04:25:44;30.35;;;11.10;;
83554;SDS011;73511;50.996;7.030;2024-01-11T04:28:11;27.83;;;11.15;;
83554;SDS011;73511;50.996;7.030;2024-01-11T04:30:38;28.85;;;11.27;;
83554;SDS011;73511;50.996;7.030;2024-01-11T04:33:04;27.40;;;11.98;;
83554;SDS011;73511;50.996;7.030;2024-01-11T04:35:31;35.67;;;13.52;;
83554;SDS011;73511;50.996;7.030;2024-01-11T04:37:58;28.95;;;13.98;;
83554;SDS011;73511;50.996;7.030;2024-01-11T04:40:25;35.55;;;11.77;;
83554;SDS011;73511;50.996;7.030;2024-01-11T04:42:51;33.80;;;11.02;;
83554;SDS011;73511;50.996;7.030;2024-01-11T04:45:18;25.95;;;12.52;;
83554;SDS011;73511;50.996;7.030;2024-01-11T04:47:45;32.80;;;12.50;;
83554;SDS011;73511;50.996;7.030;2024-01-11T04:50:12;30.83;;;13.30;;
83554;SDS011;73511;50.996;7.030;2024-01-11T04:52:38;28.90;;;11.65;;
83554;SDS011;73511;50.996;7.030;2024-01-11T04:55:05;30.58;;;12.40;;
83554;SDS011;73511;50.996;7.030;2024-01-11T04:57:32;29.15;;;11.10;;
83554;SDS011;73511;50.996;7.030;2024-01-11T04:59:58;41.83;;;14.15;;
83554;SDS011;73511;50.996;7.030;2024-01-11T05:02:29;32.33;;;10.73;;
83554;SDS011;73511;50.996;7.030;2024-01-11T05:04:55;31.73;;;13.75;;
83554;SDS011;73511;50.996;7.030;2024-01-11T05:07:22;24.73;;;10.32;;
83554;SDS011;73511;50.996;7.030;2024-01-11T05:09:49;31.90;;;13.23;;
83554;SDS011;73511;50.996;7.030;2024-01-11T05:12:15;33.70;;;12.02;;
83554;SDS011;73511;50.996;7.030;2024-01-11T05:14:42;34.95;;;11.88;;
83554;SDS011;73511;50.996;7.030;2024-01-11T05:17:09;34.13;;;12.25;;
83554;SDS011;73511;50.996;7.030;2024-01-11T05:19:36;26.88;;;11.98;;
83554;SDS011;73511;50.996;7.030;2024-01-11T05:22:03;34.88;;;11.65;;
83554;SDS011;73511;50.996;7.030;2024-01-11T05:24:29;38.17;;;14.52;;
83554;SDS011;73511;50.996;7.030;2024-01-11T05:26:56;30.50;;;12.35;;
83554;SDS011;73511;50.996;7.030;2024-01-11T05:29:22;29.40;;;12.20;;
83554;SDS011;73511;50.996;7.030;2024-01-11T05:31:49;35.85;;;14.48;;
83554;SDS011;73511;50.996;7.030;2024-01-11T05:34:16;36.22;;;13.95;;
83554;SDS011;73511;50.996;7.030;2024-01-11T05:36:45;32.97;;;14.18;;
83554;SDS011;73511;50.996;7.030;2024-01-11T05:39:12;33.50;;;13.82;;
83554;SDS011;73511;50.996;7.030;2024-01-11T05:41:38;39.95;;;15.43;;
83554;SDS011;73511;50.996;7.030;2024-01-11T05:44:05;32.33;;;12.65;;
83554;SDS011;73511;50.996;7.030;2024-01-11T05:46:32;31.45;;;12.85;;
83554;SDS011;73511;50.996;7.030;2024-01-11T05:48:59;39.08;;;14.95;;
83554;SDS011;73511;50.996;7.030;2024-01-11T05:51:26;34.90;;;13.45;;
83554;SDS011;73511;50.996;7.030;2024-01-11T05:53:53;32.20;;;12.80;;
83554;SDS011;73511;50.996;7.030;2024-01-11T05:56:20;26.88;;;10.82;;
83554;SDS011;73511;50.996;7.030;2024-01-11T05:58:47;34.60;;;11.80;;
83554;SDS011;73511;50.996;7.030;2024-01-11T06:01:14;33.60;;;12.82;;
83554;SDS011;73511;50.996;7.030;2024-01-11T06:03:41;35.60;;;13.15;;
83554;SDS011;73511;50.996;7.030;2024-01-11T06:06:08;32.95;;;13.85;;
83554;SDS011;73511;50.996;7.030;2024-01-11T06:08:35;30.45;;;12.70;;
83554;SDS011;73511;50.996;7.030;2024-01-11T06:11:02;26.67;;;12.52;;
83554;SDS011;73511;50.996;7.030;2024-01-11T06:18:23;33.15;;;12.43;;
83554;SDS011;73511;50.996;7.030;2024-01-11T06:20:50;33.97;;;15.68;;
83554;SDS011;73511;50.996;7.030;2024-01-11T06:23:17;32.15;;;13.20;;
83554;SDS011;73511;50.996;7.030;2024-01-11T06:25:44;30.63;;;13.55;;
83554;SDS011;73511;50.996;7.030;2024-01-11T06:30:39;28.45;;;10.38;;
83554;SDS011;73511;50.996;7.030;2024-01-11T06:33:06;33.75;;;11.98;;
83554;SDS011;73511;50.996;7.030;2024-01-11T06:35:33;31.02;;;11.35;;
83554;SDS011;73511;50.996;7.030;2024-01-11T06:37:59;41.30;;;14.63;;
83554;SDS011;73511;50.996;7.030;2024-01-11T06:40:28;31.25;;;12.18;;
83554;SDS011;73511;50.996;7.030;2024-01-11T06:42:54;34.00;;;12.02;;
83554;SDS011;73511;50.996;7.030;2024-01-11T06:45:23;37.08;;;14.13;;
83554;SDS011;73511;50.996;7.030;2024-01-11T06:47:50;37.47;;;15.32;;
83554;SDS011;73511;50.996;7.030;2024-01-11T06:50:17;40.88;;;15.35;;
83554;SDS011;73511;50.996;7.030;2024-01-11T06:52:47;35.67;;;14.10;;
83554;SDS011;73511;50.996;7.030;2024-01-11T06:55:17;34.45;;;15.43;;
83554;SDS011;73511;50.996;7.030;2024-01-11T06:57:46;29.33;;;12.65;;
83554;SDS011;73511;50.996;7.030;2024-01-11T07:00:16;40.72;;;14.52;;
83554;SDS011;73511;50.996;7.030;2024-01-11T07:02:43;40.17;;;14.90;;
83554;SDS011;73511;50.996;7.030;2024-01-11T07:05:09;35.58;;;15.50;;
83554;SDS011;73511;50.996;7.030;2024-01-11T07:07:36;38.10;;;14.57;;
83554;SDS011;73511;50.996;7.030;2024-01-11T07:10:02;29.90;;;13.75;;
83554;SDS011;73511;50.996;7.030;2024-01-11T07:12:32;30.35;;;13.30;;
83554;SDS011;73511;50.996;7.030;2024-01-11T07:14:59;33.72;;;14.80;;
83554;SDS011;73511;50.996;7.030;2024-01-11T07:17:26;36.25;;;13.77;;
83554;SDS011;73511;50.996;7.030;2024-01-11T07:19:52;32.67;;;14.55;;
83554;SDS011;73511;50.996;7.030;2024-01-11T07:22:19;33.50;;;12.07;;
83554;SDS011;73511;50.996;7.030;2024-01-11T07:24:46;34.67;;;13.70;;
83554;SDS011;73511;50.996;7.030;2024-01-11T07:27:13;33.90;;;15.82;;
83554;SDS011;73511;50.996;7.030;2024-01-11T07:29:40;36.13;;;15.93;;
83554;SDS011;73511;50.996;7.030;2024-01-11T07:32:10;44.35;;;18.20;;
83554;SDS011;73511;50.996;7.030;2024-01-11T07:34:38;42.75;;;18.00;;
83554;SDS011;73511;50.996;7.030;2024-01-11T07:37:04;33.00;;;14.93;;
83554;SDS011;73511;50.996;7.030;2024-01-11T07:39:31;42.88;;;14.82;;
83554;SDS011;73511;50.996;7.030;2024-01-11T07:42:00;36.40;;;13.48;;
83554;SDS011;73511;50.996;7.030;2024-01-11T07:44:26;35.70;;;14.30;;
83554;SDS011;73511;50.996;7.030;2024-01-11T07:46:53;34.53;;;13.60;;
83554;SDS011;73511;50.996;7.030;2024-01-11T07:49:24;35.83;;;13.45;;
83554;SDS011;73511;50.996;7.030;2024-01-11T07:51:51;22.48;;;9.35;;
83554;SDS011;73511;50.996;7.030;2024-01-11T07:54:18;35.97;;;12.88;;
83554;SDS011;73511;50.996;7.030;2024-01-11T07:56:44;28.55;;;12.63;;
83554;SDS011;73511;50.996;7.030;2024-01-11T07:59:11;29.10;;;12.27;;
83554;SDS011;73511;50.996;7.030;2024-01-11T08:01:41;25.80;;;11.85;;
83554;SDS011;73511;50.996;7.030;2024-01-11T08:04:08;37.92;;;13.95;;
83554;SDS011;73511;50.996;7.030;2024-01-11T08:06:35;32.85;;;11.43;;
83554;SDS011;73511;50.996;7.030;2024-01-11T08:09:01;41.47;;;14.23;;
83554;SDS011;73511;50.996;7.030;2024-01-11T08:11:31;46.35;;;14.77;;
83554;SDS011;73511;50.996;7.030;2024-01-11T08:14:04;28.73;;;12.40;;
83554;SDS011;73511;50.996;7.030;2024-01-11T08:16:32;30.35;;;12.02;;
83554;SDS011;73511;50.996;7.030;2024-01-11T08:18:59;38.38;;;13.77;;
83554;SDS011;73511;50.996;7.030;2024-01-11T08:21:28;42.30;;;15.85;;
83554;SDS011;73511;50.996;7.030;2024-01-11T08:23:54;43.92;;;17.65;;
83554;SDS011;73511;50.996;7.030;2024-01-11T08:26:27;53.60;;;19.13;;
83554;SDS011;73511;50.996;7.030;2024-01-11T08:28:54;55.78;;;18.55;;
83554;SDS011;73511;50.996;7.030;2024-01-11T08:31:21;50.28;;;15.38;;
83554;SDS011;73511;50.996;7.030;2024-01-11T08:33:48;41.45;;;15.23;;
83554;SDS011;73511;50.996;7.030;2024-01-11T08:36:15;45.95;;;17.65;;
83554;SDS011;73511;50.996;7.030;2024-01-11T08:38:42;45.53;;;17.08;;
83554;SDS011;73511;50.996;7.030;2024-01-11T08:41:09;47.03;;;17.75;;
83554;SDS011;73511;50.996;7.030;2024-01-11T08:43:35;45.10;;;14.95;;
83554;SDS011;73511;50.996;7.030;2024-01-11T08:46:02;41.13;;;16.23;;
83554;SDS011;73511;50.996;7.030;2024-01-11T08:48:29;36.65;;;15.45;;
83554;SDS011;73511;50.996;7.030;2024-01-11T08:50:56;31.52;;;13.45;;
83554;SDS011;73511;50.996;7.030;2024-01-11T08:53:23;34.90;;;15.43;;
83554;SDS011;73511;50.996;7.030;2024-01-11T08:55:50;40.42;;;15.65;;
83554;SDS011;73511;50.996;7.030;2024-01-11T08:58:16;34.85;;;13.27;;
83554;SDS011;73511;50.996;7.030;2024-01-11T09:00:43;34.80;;;15.82;;
83554;SDS011;73511;50.996;7.030;2024-01-11T09:03:10;32.85;;;13.43;;
83554;SDS011;73511;50.996;7.030;2024-01-11T09:05:39;30.75;;;14.57;;
83554;SDS011;73511;50.996;7.030;2024-01-11T09:08:06;42.72;;;14.85;;
83554;SDS011;73511;50.996;7.030;2024-01-11T09:10:33;42.60;;;15.70;;
83554;SDS011;73511;50.996;7.030;2024-01-11T09:13:00;37.90;;;14.48;;
83554;SDS011;73511;50.996;7.030;2024-01-11T09:15:27;40.90;;;15.68;;
83554;SDS011;73511;50.996;7.030;2024-01-11T09:17:54;31.95;;;12.55;;
83554;SDS011;73511;50.996;7.030;2024-01-11T09:20:21;37.40;;;14.27;;
83554;SDS011;73511;50.996;7.030;2024-01-11T09:22:48;37.72;;;14.95;;
83554;SDS011;73511;50.996;7.030;2024-01-11T09:25:15;32.97;;;14.23;;
83554;SDS011;73511;50.996;7.030;2024-01-11T09:27:42;38.42;;;15.80;;
83554;SDS011;73511;50.996;7.030;2024-01-11T09:30:12;43.85;;;12.18;;
83554;SDS011;73511;50.996;7.030;2024-01-11T09:32:39;39.72;;;14.18;;
83554;SDS011;73511;50.996;7.030;2024-01-11T09:35:07;42.72;;;14.90;;
83554;SDS011;73511;50.996;7.030;2024-01-11T09:37:35;37.10;;;14.30;;
83554;SDS011;73511;50.996;7.030;2024-01-11T09:40:02;32.53;;;13.27;;
83554;SDS011;73511;50.996;7.030;2024-01-11T09:42:30;40.28;;;14.63;;
83554;SDS011;73511;50.996;7.030;2024-01-11T09:44:57;27.35;;;11.00;;
83554;SDS011;73511;50.996;7.030;2024-01-11T09:47:24;39.22;;;14.15;;
83554;SDS011;73511;50.996;7.030;2024-01-11T09:49:53;43.75;;;14.77;;
83554;SDS011;73511;50.996;7.030;2024-01-11T09:52:20;40.25;;;14.40;;
83554;SDS011;73511;50.996;7.030;2024-01-11T09:54:48;40.03;;;15.18;;
83554;SDS011;73511;50.996;7.030;2024-01-11T09:57:15;29.88;;;13.32;;
83554;SDS011;73511;50.996;7.030;2024-01-11T09:59:43;34.63;;;13.38;;
83554;SDS011;73511;50.996;7.030;2024-01-11T10:02:10;36.80;;;15.35;;
83554;SDS011;73511;50.996;7.030;2024-01-11T10:04:37;27.70;;;12.52;;
83554;SDS011;73511;50.996;7.030;2024-01-11T10:07:04;41.53;;;16.17;;
83554;SDS011;73511;50.996;7.030;2024-01-11T10:09:32;44.30;;;15.70;;
83554;SDS011;73511;50.996;7.030;2024-01-11T10:11:59;32.38;;;13.73;;
83554;SDS011;73511;50.996;7.030;2024-01-11T10:14:26;31.55;;;12.68;;
83554;SDS011;73511;50.996;7.030;2024-01-11T10:16:53;44.42;;;16.88;;
83554;SDS011;73511;50.996;7.030;2024-01-11T10:19:21;38.22;;;13.40;;
83554;SDS011;73511;50.996;7.030;2024-01-11T10:21:48;45.67;;;15.93;;
83554;SDS011;73511;50.996;7.030;2024-01-11T10:24:18;39.33;;;14.40;;
83554;SDS011;73511;50.996;7.030;2024-01-11T10:26:47;40.35;;;13.68;;
83554;SDS011;73511;50.996;7.030;2024-01-11T10:29:14;46.03;;;16.65;;
83554;SDS011;73511;50.996;7.030;2024-01-11T10:31:40;41.03;;;16.48;;
83554;SDS011;73511;50.996;7.030;2024-01-11T10:34:07;46.85;;;16.92;;
83554;SDS011;73511;50.996;7.030;2024-01-11T10:36:35;33.80;;;14.45;;
83554;SDS011;73511;50.996;7.030;2024-01-11T10:39:02;39.58;;;14.50;;
83554;SDS011;73511;50.996;7.030;2024-01-11T10:41:37;31.45;;;13.18;;
83554;SDS011;73511;50.996;7.030;2024-01-11T10:44:18;46.90;;;18.63;;
83554;SDS011;73511;50.996;7.030;2024-01-11T10:46:47;50.38;;;17.27;;
83554;SDS011;73511;50.996;7.030;2024-01-11T10:49:19;54.30;;;17.30;;
83554;SDS011;73511;50.996;7.030;2024-01-11T10:51:49;34.78;;;13.98;;
83554;SDS011;73511;50.996;7.030;2024-01-11T10:54:19;47.10;;;16.10;;
83554;SDS011;73511;50.996;7.030;2024-01-11T10:56:46;52.92;;;17.50;;
83554;SDS011;73511;50.996;7.030;2024-01-11T10:59:13;41.65;;;17.02;;
83554;SDS011;73511;50.996;7.030;2024-01-11T11:01:41;56.83;;;22.35;;
83554;SDS011;73511;50.996;7.030;2024-01-11T11:04:08;49.50;;;21.77;;
83554;SDS011;73511;50.996;7.030;2024-01-11T11:06:36;49.80;;;19.80;;
83554;SDS011;73511;50.996;7.030;2024-01-11T11:09:03;42.33;;;18.17;;
83554;SDS011;73511;50.996;7.030;2024-01-11T11:11:30;52.40;;;19.88;;
83554;SDS011;73511;50.996;7.030;2024-01-11T11:13:58;48.35;;;18.77;;
83554;SDS011;73511;50.996;7.030;2024-01-11T11:16:27;45.33;;;18.35;;
83554;SDS011;73511;50.996;7.030;2024-01-11T11:18:54;55.42;;;20.52;;
83554;SDS011;73511;50.996;7.030;2024-01-11T11:21:21;53.13;;;21.00;;
83554;SDS011;73511;50.996;7.030;2024-01-11T11:23:48;44.63;;;16.23;;
83554;SDS011;73511;50.996;7.030;2024-01-11T11:26:16;39.88;;;16.75;;
83554;SDS011;73511;50.996;7.030;2024-01-11T11:28:44;51.33;;;17.67;;
83554;SDS011;73511;50.996;7.030;2024-01-11T11:31:11;40.58;;;16.55;;
83554;SDS011;73511;50.996;7.030;2024-01-11T11:33:38;49.10;;;21.13;;
83554;SDS011;73511;50.996;7.030;2024-01-11T11:38:33;39.55;;;15.15;;
83554;SDS011;73511;50.996;7.030;2024-01-11T11:41:02;54.40;;;19.00;;
83554;SDS011;73511;50.996;7.030;2024-01-11T11:43:29;56.75;;;19.23;;
83554;SDS011;73511;50.996;7.030;2024-01-11T11:45:56;48.00;;;18.80;;
83554;SDS011;73511;50.996;7.030;2024-01-11T11:53:38;56.33;;;20.60;;
83554;SDS011;73511;50.996;7.030;2024-01-11T11:56:07;55.92;;;23.85;;
83554;SDS011;73511;50.996;7.030;2024-01-11T11:58:36;74.35;;;26.05;;
83554;SDS011;73511;50.996;7.030;2024-01-11T12:01:03;54.97;;;21.77;;
83554;SDS011;73511;50.996;7.030;2024-01-11T12:03:34;50.55;;;18.35;;
83554;SDS011;73511;50.996;7.030;2024-01-11T12:06:05;122.18;;;34.90;;
83554;SDS011;73511;50.996;7.030;2024-01-11T12:08:33;67.93;;;24.23;;
83554;SDS011;73511;50.996;7.030;2024-01-11T12:11:00;64.97;;;23.60;;
83554;SDS011;73511;50.996;7.030;2024-01-11T12:13:27;59.63;;;23.48;;
83554;SDS011;73511;50.996;7.030;2024-01-11T12:15:54;63.95;;;24.00;;
83554;SDS011;73511;50.996;7.030;2024-01-11T12:18:22;76.18;;;22.83;;
83554;SDS011;73511;50.996;7.030;2024-01-11T12:20:49;97.00;;;31.73;;
83554;SDS011;73511;50.996;7.030;2024-01-11T12:23:16;58.80;;;22.35;;
83554;SDS011;73511;50.996;7.030;2024-01-11T12:25:44;73.00;;;25.00;;
83554;SDS011;73511;50.996;7.030;2024-01-11T12:28:11;102.47;;;35.20;;
83554;SDS011;73511;50.996;7.030;2024-01-11T12:30:37;60.85;;;18.52;;
83554;SDS011;73511;50.996;7.030;2024-01-11T12:33:05;51.65;;;21.40;;
83554;SDS011;73511;50.996;7.030;2024-01-11T12:35:33;50.13;;;21.10;;
83554;SDS011;73511;50.996;7.030;2024-01-11T12:38:04;55.08;;;22.25;;
83554;SDS011;73511;50.996;7.030;2024-01-11T12:40:36;61.80;;;21.40;;
83554;SDS011;73511;50.996;7.030;2024-01-11T12:43:10;51.45;;;21.83;;
83554;SDS011;73511;50.996;7.030;2024-01-11T12:45:38;58.30;;;22.75;;
83554;SDS011;73511;50.996;7.030;2024-01-11T12:48:08;64.60;;;23.48;;
83554;SDS011;73511;50.996;7.030;2024-01-11T12:50:36;45.03;;;20.25;;
83554;SDS011;73511;50.996;7.030;2024-01-11T12:55:32;41.20;;;17.48;;
83554;SDS011;73511;50.996;7.030;2024-01-11T12:58:20;65.38;;;21.77;;
83554;SDS011;73511;50.996;7.030;2024-01-11T13:00:52;61.80;;;23.08;;
83554;SDS011;73511;50.996;7.030;2024-01-11T13:03:20;50.45;;;19.35;;
83554;SDS011;73511;50.996;7.030;2024-01-11T13:05:47;48.67;;;20.25;;
83554;SDS011;73511;50.996;7.030;2024-01-11T13:10:45;44.58;;;18.38;;
83554;SDS011;73511;50.996;7.030;2024-01-11T13:13:14;63.90;;;24.33;;
83554;SDS011;73511;50.996;7.030;2024-01-11T13:15:41;56.13;;;20.52;;
83554;SDS011;73511;50.996;7.030;2024-01-11T13:18:08;50.90;;;18.73;;
83554;SDS011;73511;50.996;7.030;2024-01-11T13:20:34;74.78;;;30.17;;
83554;SDS011;73511;50.996;7.030;2024-01-11T13:25:58;75.70;;;26.45;;
83554;SDS011;73511;50.996;7.030;2024-01-11T13:28:25;56.85;;;19.70;;
83554;SDS011;73511;50.996;7.030;2024-01-11T13:30:53;72.78;;;25.10;;
83554;SDS011;73511;50.996;7.030;2024-01-11T13:33:20;51.30;;;17.17;;
83554;SDS011;73511;50.996;7.030;2024-01-11T13:35:49;81.32;;;26.60;;
83554;SDS011;73511;50.996;7.030;2024-01-11T13:38:16;65.55;;;24.17;;
83554;SDS011;73511;50.996;7.030;2024-01-11T13:40:42;60.22;;;22.63;;
83554;SDS011;73511;50.996;7.030;2024-01-11T13:43:09;65.22;;;24.40;;
83554;SDS011;73511;50.996;7.030;2024-01-11T13:45:36;73.55;;;27.15;;
83554;SDS011;73511;50.996;7.030;2024-01-11T13:48:03;67.97;;;24.23;;
83554;SDS011;73511;50.996;7.030;2024-01-11T13:50:31;63.17;;;24.30;;
83554;SDS011;73511;50.996;7.030;2024-01-11T13:52:59;70.03;;;23.10;;
83554;SDS011;73511;50.996;7.030;2024-01-11T13:55:26;110.18;;;33.53;;
83554;SDS011;73511;50.996;7.030;2024-01-11T13:57:53;105.20;;;32.97;;
83554;SDS011;73511;50.996;7.030;2024-01-11T14:00:20;57.13;;;22.23;;
83554;SDS011;73511;50.996;7.030;2024-01-11T14:02:47;61.30;;;22.25;;
83554;SDS011;73511;50.996;7.030;2024-01-11T14:07:45;52.47;;;17.75;;
83554;SDS011;73511;50.996;7.030;2024-01-11T14:10:13;49.22;;;15.60;;
83554;SDS011;73511;50.996;7.030;2024-01-11T14:12:40;57.95;;;19.50;;
83554;SDS011;73511;50.996;7.030;2024-01-11T14:15:08;49.28;;;20.38;;
83554;SDS011;73511;50.996;7.030;2024-01-11T14:17:38;49.53;;;19.13;;
83554;SDS011;73511;50.996;7.030;2024-01-11T14:20:06;53.15;;;20.55;;
83554;SDS011;73511;50.996;7.030;2024-01-11T14:22:40;55.00;;;21.15;;
83554;SDS011;73511;50.996;7.030;2024-01-11T14:25:07;44.78;;;17.67;;
83554;SDS011;73511;50.996;7.030;2024-01-11T14:27:37;45.95;;;18.92;;
83554;SDS011;73511;50.996;7.030;2024-01-11T14:30:05;37.92;;;13.43;;
83554;SDS011;73511;50.996;7.030;2024-01-11T14:32:33;52.85;;;18.17;;
83554;SDS011;73511;50.996;7.030;2024-01-11T14:35:03;54.13;;;18.60;;
83554;SDS011;73511;50.996;7.030;2024-01-11T14:37:32;42.03;;;15.85;;
83554;SDS011;73511;50.996;7.030;2024-01-11T14:39:59;49.85;;;18.92;;
83554;SDS011;73511;50.996;7.030;2024-01-11T14:42:26;44.17;;;15.57;;
83554;SDS011;73511;50.996;7.030;2024-01-11T14:44:53;49.47;;;16.70;;
83554;SDS011;73511;50.996;7.030;2024-01-11T14:47:21;47.78;;;15.43;;
83554;SDS011;73511;50.996;7.030;2024-01-11T14:49:48;41.78;;;14.48;;